Time;durP1;ratioP1;P1;durP2;ratioP2;P2;SDS_P1;SDS_P2;PMS_P1;PMS_P2;Temp;Humidity;BMP_temperature;BMP_pressure;BME280_temperature;BME280_humidity;BME280_pressure;Samples;Min_cycle;Max_cycle;Signal;HPM_P1;HPM_P2
2022/01/18 00:01:37;;;;;;;5.15;3.50;;;5.50;99.90;;;;;;5004125;28;20185;-51
2022/01/18 00:04:08;;;;;;;4.20;3.85;;;5.50;99.90;;;;;;5007280;28;20224;-51
2022/01/18 00:06:38;;;;;;;4.90;3.35;;;5.50;99.90;;;;;;5009521;28;20572;-52
2022/01/18 00:09:07;;;;;;;5.60;3.50;;;5.50;99.90;;;;;;5006789;28;20389;-51
2022/01/18 00:11:42;;;;;;;3.35;2.95;;;5.50;99.90;;;;;;5003667;28;20198;-51
2022/01/18 00:14:22;;;;;;;4.95;3.30;;;5.50;99.90;;;;;;5007637;28;20221;-51
2022/01/18 00:17:03;;;;;;;5.95;3.80;;;5.50;99.90;;;;;;5003354;28;20285;-51
2022/01/18 00:19:39;;;;;;;6.53;3.53;;;5.50;99.90;;;;;;5008705;28;20236;-50
2022/01/18 00:22:12;;;;;;;6.15;3.83;;;5.50;99.90;;;;;;5009716;28;20201;-50
2022/01/18 00:24:41;;;;;;;3.95;3.15;;;5.50;99.90;;;;;;5004977;28;20218;-51
2022/01/18 00:27:13;;;;;;;6.05;3.10;;;5.50;99.90;;;;;;5009159;28;20194;-51
2022/01/18 00:29:50;;;;;;;3.47;3.17;;;5.50;99.90;;;;;;5008627;28;20234;-51
2022/01/18 00:32:26;;;;;;;3.53;3.15;;;5.50;99.90;;;;;;4997623;28;20216;-50
2022/01/18 00:34:56;;;;;;;3.25;2.88;;;5.50;99.90;;;;;;5007944;28;20639;-52
2022/01/18 00:37:33;;;;;;;4.50;2.97;;;5.50;99.90;;;;;;5009116;28;20206;-50
2022/01/18 00:40:01;;;;;;;3.50;3.20;;;5.50;99.90;;;;;;5008369;28;20692;-52
2022/01/18 00:42:29;;;;;;;4.30;3.30;;;5.50;99.90;;;;;;4993783;28;20213;-51
2022/01/18 00:44:57;;;;;;;4.35;3.10;;;5.50;99.90;;;;;;4991002;28;20222;-51
2022/01/18 00:47:26;;;;;;;3.58;3.28;;;5.50;99.90;;;;;;5007516;28;20197;-50
2022/01/18 00:50:00;;;;;;;4.15;2.78;;;5.50;99.90;;;;;;5008235;28;20750;-51
2022/01/18 00:52:31;;;;;;;3.63;3.33;;;5.50;99.90;;;;;;5008652;28;20672;-51
2022/01/18 00:55:01;;;;;;;6.05;3.25;;;5.50;99.90;;;;;;5007257;28;20229;-51
2022/01/18 00:57:29;;;;;;;5.47;3.78;;;5.50;99.90;;;;;;4991172;28;20615;-50
2022/01/18 00:59:58;;;;;;;4.90;2.50;;;5.50;99.90;;;;;;4998195;28;20260;-51
2022/01/18 01:02:26;;;;;;;3.53;3.22;;;5.50;99.90;;;;;;4997694;28;20273;-51
2022/01/18 01:04:56;;;;;;;3.47;3.15;;;5.60;99.90;;;;;;4988837;28;20230;-52
2022/01/18 01:07:24;;;;;;;3.20;2.90;;;5.60;99.90;;;;;;4989464;28;20511;-51
2022/01/18 01:09:53;;;;;;;4.65;2.55;;;5.50;99.90;;;;;;4988969;28;20589;-51
2022/01/18 01:12:24;;;;;;;3.80;2.70;;;5.60;99.90;;;;;;5002754;28;20592;-51
2022/01/18 01:14:57;;;;;;;4.30;3.33;;;5.60;99.90;;;;;;5008691;28;20332;-51
2022/01/18 01:17:37;;;;;;;6.07;3.50;;;5.50;99.90;;;;;;4998864;28;20210;-51
2022/01/18 01:34:34;;;;;;;3.28;2.97;;;5.60;99.90;;;;;;4988671;28;20661;-51
2022/01/18 01:42:58;;;;;;;5.63;3.10;;;5.60;99.90;;;;;;4989310;28;20314;-51
2022/01/18 01:45:30;;;;;;;3.33;2.80;;;5.60;99.90;;;;;;4988371;28;20222;-50
2022/01/18 01:48:00;;;;;;;3.90;3.17;;;5.60;99.90;;;;;;4996890;28;20196;-50
2022/01/18 01:50:40;;;;;;;4.68;3.28;;;5.50;99.90;;;;;;5008317;28;20225;-52
2022/01/18 01:53:11;;;;;;;5.55;3.90;;;5.60;99.90;;;;;;5008124;28;20189;-50
2022/01/18 01:55:39;;;;;;;4.18;2.95;;;5.50;99.90;;;;;;5006317;28;20249;-51
2022/01/18 01:58:08;;;;;;;3.50;2.92;;;5.60;99.90;;;;;;5007787;28;20226;-50
2022/01/18 02:00:44;;;;;;;4.00;2.80;;;5.60;99.90;;;;;;5006963;28;20222;-50
2022/01/18 02:03:13;;;;;;;3.63;2.80;;;5.60;99.90;;;;;;5002302;28;20211;-51
2022/01/18 02:05:41;;;;;;;3.33;2.70;;;5.60;99.90;;;;;;5007440;28;20299;-52
2022/01/18 02:08:12;;;;;;;4.05;2.80;;;5.60;99.90;;;;;;5007635;28;20329;-50
2022/01/18 02:10:41;;;;;;;4.03;2.65;;;5.60;99.90;;;;;;5007725;28;20340;-51
2022/01/18 02:13:12;;;;;;;3.78;3.00;;;5.60;99.90;;;;;;4988441;28;20620;-50
2022/01/18 02:15:47;;;;;;;3.28;2.72;;;5.60;99.90;;;;;;4995324;28;20214;-51
2022/01/18 02:24:02;;;;;;;3.22;2.60;;;5.60;99.90;;;;;;5007638;28;20642;-51
2022/01/18 02:26:31;;;;;;;3.88;2.50;;;5.60;99.90;;;;;;4992973;28;20190;-50
2022/01/18 02:29:00;;;;;;;3.60;2.88;;;5.60;99.90;;;;;;5003698;28;20245;-51
2022/01/18 02:31:28;;;;;;;4.07;3.05;;;5.60;99.90;;;;;;5004283;28;20728;-51
2022/01/18 02:34:01;;;;;;;3.80;3.15;;;5.60;99.90;;;;;;4988310;28;20226;-50
2022/01/18 02:36:31;;;;;;;3.90;2.45;;;5.60;99.90;;;;;;4989197;28;20313;-51
2022/01/18 02:38:59;;;;;;;6.07;3.20;;;5.60;99.90;;;;;;4989381;28;20249;-50
2022/01/18 02:41:30;;;;;;;3.35;2.42;;;5.60;99.90;;;;;;4988125;28;20198;-50
2022/01/18 02:44:00;;;;;;;4.90;2.70;;;5.60;99.90;;;;;;4988370;28;20245;-51
2022/01/18 02:46:28;;;;;;;5.65;3.63;;;5.60;99.90;;;;;;4988702;28;20194;-51
2022/01/18 02:48:58;;;;;;;6.05;2.65;;;5.60;99.90;;;;;;4988147;28;20226;-51
2022/01/18 02:51:27;;;;;;;3.28;2.55;;;5.60;99.90;;;;;;4988780;28;20194;-51
2022/01/18 02:54:01;;;;;;;3.85;2.95;;;5.60;99.90;;;;;;4987141;28;20644;-50
2022/01/18 02:56:32;;;;;;;4.65;3.15;;;5.60;99.90;;;;;;4988739;28;20202;-51
2022/01/18 02:59:08;;;;;;;3.67;2.83;;;5.60;99.90;;;;;;4988447;28;20226;-51
2022/01/18 03:04:22;;;;;;;4.45;2.28;;;5.60;99.90;;;;;;5001935;28;20268;-51
2022/01/18 03:06:51;;;;;;;5.28;2.55;;;5.60;99.90;;;;;;4988019;28;20187;-51
2022/01/18 03:09:20;;;;;;;5.82;2.60;;;5.60;99.90;;;;;;4987482;28;20273;-50
2022/01/18 03:11:48;;;;;;;7.20;3.50;;;5.60;99.90;;;;;;5003989;28;20186;-51
2022/01/18 03:14:16;;;;;;;4.05;2.70;;;5.60;99.90;;;;;;5010646;28;20748;-51
2022/01/18 03:16:44;;;;;;;6.97;2.28;;;5.60;99.90;;;;;;5006645;28;20191;-51
2022/01/18 03:19:14;;;;;;;6.10;3.33;;;5.60;99.90;;;;;;5010959;28;20230;-50
2022/01/18 03:21:42;;;;;;;3.10;2.80;;;5.60;99.90;;;;;;5011495;28;20289;-51
2022/01/18 03:24:31;;;;;;;3.85;2.60;;;5.60;99.90;;;;;;5010751;28;20762;-51
2022/01/18 03:29:46;;;;;;;7.22;2.83;;;5.60;99.90;;;;;;4999256;28;20623;-51
2022/01/18 03:32:14;;;;;;;5.13;2.60;;;5.60;99.90;;;;;;5009752;28;20332;-52
2022/01/18 03:34:42;;;;;;;4.10;2.90;;;5.60;99.90;;;;;;5009054;28;20301;-51
2022/01/18 03:37:10;;;;;;;3.25;2.92;;;5.60;99.90;;;;;;5011020;28;20731;-51
2022/01/18 03:39:38;;;;;;;4.90;2.78;;;5.60;99.90;;;;;;5010527;28;20303;-50
2022/01/18 03:45:02;;;;;;;2.90;2.50;;;5.60;99.90;;;;;;4995425;28;20256;-51
2022/01/18 03:47:31;;;;;;;4.60;2.45;;;5.60;99.90;;;;;;4999162;28;20190;-51
2022/01/18 03:50:00;;;;;;;6.55;3.40;;;5.60;99.90;;;;;;4990602;28;20304;-51
2022/01/18 03:52:28;;;;;;;3.75;2.67;;;5.60;99.90;;;;;;4991156;28;20205;-51
2022/01/18 03:54:57;;;;;;;3.20;2.70;;;5.60;99.90;;;;;;4996429;28;20620;-51
2022/01/18 03:57:26;;;;;;;4.07;2.28;;;5.60;99.90;;;;;;4993617;28;20281;-51
2022/01/18 03:59:55;;;;;;;2.83;2.30;;;5.60;99.90;;;;;;5009327;28;20257;-51
2022/01/18 04:02:23;;;;;;;3.08;2.60;;;5.60;99.90;;;;;;5002966;28;20604;-51
2022/01/18 04:04:52;;;;;;;2.55;2.35;;;5.60;99.90;;;;;;5007687;28;20232;-51
2022/01/18 04:07:20;;;;;;;3.72;2.72;;;5.60;99.90;;;;;;5010542;28;20223;-50
2022/01/18 04:09:48;;;;;;;3.05;2.67;;;5.60;99.90;;;;;;5009728;28;20229;-50
2022/01/18 04:12:16;;;;;;;4.40;3.67;;;5.60;99.90;;;;;;5002714;28;20284;-50
2022/01/18 04:14:46;;;;;;;4.47;2.55;;;5.60;99.90;;;;;;5010597;28;20631;-50
2022/01/18 04:17:30;;;;;;;4.70;2.55;;;5.60;99.90;;;;;;5006914;28;20220;-51
2022/01/18 04:25:58;;;;;;;3.40;2.53;;;5.60;99.90;;;;;;5011180;28;20580;-50
2022/01/18 04:28:35;;;;;;;6.93;2.90;;;5.60;99.90;;;;;;5012033;28;20210;-50
2022/01/18 04:31:05;;;;;;;4.72;2.67;;;5.60;99.90;;;;;;5010011;28;20221;-50
2022/01/18 04:33:34;;;;;;;2.90;2.45;;;5.60;99.90;;;;;;5004935;28;20201;-50
2022/01/18 04:36:03;;;;;;;5.28;2.65;;;5.60;99.90;;;;;;5008138;28;20259;-50
2022/01/18 04:38:32;;;;;;;2.92;2.58;;;5.60;99.90;;;;;;5008691;28;20212;-50
2022/01/18 04:41:05;;;;;;;2.92;2.63;;;5.60;99.90;;;;;;5004044;28;20296;-51
2022/01/18 04:43:46;;;;;;;5.28;3.45;;;5.60;99.90;;;;;;5009763;28;20371;-50
2022/01/18 04:49:04;;;;;;;3.28;2.97;;;5.60;99.90;;;;;;5007612;28;20226;-51
2022/01/18 04:51:32;;;;;;;3.13;2.80;;;5.60;99.90;;;;;;5008470;28;20224;-52
2022/01/18 04:54:02;;;;;;;4.35;2.90;;;5.60;99.90;;;;;;5006907;28;20257;-49
2022/01/18 04:59:15;;;;;;;4.40;2.60;;;5.60;99.90;;;;;;5007069;28;20305;-51
2022/01/18 05:01:46;;;;;;;2.97;2.67;;;5.60;99.90;;;;;;5002939;28;20194;-51
2022/01/18 05:04:15;;;;;;;4.60;3.13;;;5.60;99.90;;;;;;5006973;28;20221;-51
2022/01/18 05:06:44;;;;;;;6.10;3.20;;;5.60;99.90;;;;;;5007978;28;20193;-51
2022/01/18 05:09:12;;;;;;;4.47;2.80;;;5.60;99.90;;;;;;5007239;28;20708;-50
2022/01/18 05:11:48;;;;;;;4.70;2.95;;;5.60;99.90;;;;;;5005732;28;20328;-51
2022/01/18 05:14:26;;;;;;;3.08;2.60;;;5.70;99.90;;;;;;4987954;28;20242;-51
2022/01/18 05:17:03;;;;;;;5.03;2.90;;;5.70;99.90;;;;;;4990332;28;20226;-51
2022/01/18 05:19:42;;;;;;;3.30;2.28;;;5.70;99.90;;;;;;4996017;28;20217;-50
2022/01/18 05:24:57;;;;;;;5.15;2.80;;;5.60;99.90;;;;;;4999327;28;20264;-51
2022/01/18 05:27:25;;;;;;;4.82;3.38;;;5.70;99.90;;;;;;4997940;28;20225;-51
2022/01/18 05:29:54;;;;;;;3.30;2.85;;;5.60;99.90;;;;;;5006773;28;20253;-50
2022/01/18 05:32:23;;;;;;;5.00;3.30;;;5.70;99.90;;;;;;5002345;28;20215;-51
2022/01/18 05:34:52;;;;;;;7.53;3.53;;;5.70;99.90;;;;;;5006326;28;20585;-51
2022/01/18 05:37:20;;;;;;;4.07;2.92;;;5.70;99.90;;;;;;5008140;28;20208;-51
2022/01/18 05:39:48;;;;;;;4.30;3.08;;;5.60;99.90;;;;;;5007268;28;20268;-50
2022/01/18 05:42:18;;;;;;;3.55;3.10;;;5.70;99.90;;;;;;4989002;28;20235;-50
2022/01/18 05:44:49;;;;;;;3.40;3.10;;;5.70;99.90;;;;;;4987848;28;20585;-51
2022/01/18 05:47:17;;;;;;;9.15;3.67;;;5.70;99.90;;;;;;4987540;28;20204;-51
2022/01/18 05:49:47;;;;;;;7.20;3.03;;;5.60;99.90;;;;;;4987610;28;20321;-51
2022/01/18 05:52:15;;;;;;;3.55;2.75;;;5.70;99.90;;;;;;5006316;28;20209;-51
2022/01/18 05:54:43;;;;;;;4.05;3.00;;;5.60;99.90;;;;;;5000569;28;20218;-50
2022/01/18 05:57:11;;;;;;;6.03;2.90;;;5.60;99.90;;;;;;4988176;28;20195;-52
2022/01/18 05:59:44;;;;;;;3.97;2.92;;;5.60;99.90;;;;;;4987457;28;20234;-51
2022/01/18 06:02:17;;;;;;;3.17;2.50;;;5.70;99.90;;;;;;4996647;28;20263;-51
2022/01/18 06:07:32;;;;;;;4.90;3.17;;;5.70;99.90;;;;;;5007421;28;20221;-51
2022/01/18 06:10:01;;;;;;;3.78;3.10;;;5.60;99.90;;;;;;5006896;28;20312;-51
2022/01/18 06:12:29;;;;;;;6.88;3.20;;;5.70;99.90;;;;;;4988200;28;20209;-51
2022/01/18 06:14:57;;;;;;;3.08;2.53;;;5.70;99.90;;;;;;4987087;28;20298;-50
2022/01/18 06:17:25;;;;;;;4.55;3.03;;;5.70;99.90;;;;;;4987324;28;20230;-51
2022/01/18 06:19:55;;;;;;;5.70;3.30;;;5.70;99.90;;;;;;4987611;28;20249;-51
2022/01/18 06:22:23;;;;;;;5.63;3.97;;;5.70;99.90;;;;;;4988645;28;20909;-51
2022/01/18 06:24:51;;;;;;;4.47;3.63;;;5.70;99.90;;;;;;4986329;28;20245;-50
2022/01/18 06:27:20;;;;;;;5.97;3.13;;;5.70;99.90;;;;;;4994700;28;20277;-51
2022/01/18 06:29:48;;;;;;;3.83;3.00;;;5.70;99.90;;;;;;5006855;28;20229;-51
2022/01/18 06:32:16;;;;;;;5.97;2.65;;;5.70;99.90;;;;;;4997194;28;20194;-51
2022/01/18 06:34:45;;;;;;;6.10;3.17;;;5.70;99.90;;;;;;5005379;28;20222;-50
2022/01/18 06:37:14;;;;;;;3.38;2.95;;;5.70;99.90;;;;;;5007138;28;20198;-51
2022/01/18 06:39:43;;;;;;;3.75;2.55;;;5.70;99.90;;;;;;5006989;28;20221;-50
2022/01/18 06:42:12;;;;;;;5.63;3.20;;;5.70;99.90;;;;;;4996254;28;20668;-51
2022/01/18 06:44:40;;;;;;;3.85;2.42;;;5.70;99.90;;;;;;5005488;28;20229;-51
2022/01/18 06:47:08;;;;;;;4.78;3.72;;;5.70;99.90;;;;;;5002715;28;20194;-50
2022/01/18 06:49:36;;;;;;;6.90;3.10;;;5.70;99.90;;;;;;5009740;28;20312;-51
2022/01/18 06:52:06;;;;;;;4.22;2.80;;;5.70;99.90;;;;;;5010683;28;20291;-51
2022/01/18 06:54:35;;;;;;;7.00;3.38;;;5.70;99.90;;;;;;5006936;28;20241;-51
2022/01/18 06:57:04;;;;;;;5.65;3.72;;;5.70;99.90;;;;;;5010444;28;20240;-51
2022/01/18 06:59:34;;;;;;;5.30;3.20;;;5.70;99.90;;;;;;5010159;28;20239;-51
2022/01/18 07:02:02;;;;;;;3.72;2.92;;;5.70;99.90;;;;;;5002825;28;20271;-51
2022/01/18 07:04:31;;;;;;;3.40;2.83;;;5.70;99.90;;;;;;4991155;28;20293;-51
2022/01/18 07:07:00;;;;;;;5.35;2.90;;;5.70;99.90;;;;;;4991641;28;20530;-51
2022/01/18 07:09:29;;;;;;;3.47;3.17;;;5.70;99.90;;;;;;4990813;28;20234;-50
2022/01/18 07:11:59;;;;;;;4.65;3.35;;;5.70;99.90;;;;;;4990767;28;20190;-51
2022/01/18 07:14:27;;;;;;;3.25;2.95;;;5.70;99.90;;;;;;4990237;28;20276;-52
2022/01/18 07:16:55;;;;;;;3.47;2.95;;;5.70;99.90;;;;;;4990584;28;20205;-51
2022/01/18 07:19:24;;;;;;;4.15;3.17;;;5.70;99.90;;;;;;4990923;28;20229;-51
2022/01/18 07:21:52;;;;;;;4.95;2.97;;;5.70;99.90;;;;;;4991529;28;20233;-51
2022/01/18 07:24:36;;;;;;;5.50;3.20;;;5.70;99.90;;;;;;4990919;28;20629;-52
2022/01/18 07:27:09;;;;;;;4.88;3.88;;;5.70;99.90;;;;;;4990906;28;20268;-51
2022/01/18 07:29:41;;;;;;;5.53;3.78;;;5.70;99.90;;;;;;4990842;28;20317;-50
2022/01/18 07:32:10;;;;;;;4.00;3.03;;;5.70;99.90;;;;;;4991358;28;20879;-50
2022/01/18 07:34:45;;;;;;;5.55;3.58;;;5.70;99.90;;;;;;4991124;28;20234;-51
2022/01/18 07:37:15;;;;;;;6.55;3.55;;;5.70;99.90;;;;;;4991425;28;20217;-50
2022/01/18 07:39:49;;;;;;;4.15;2.83;;;5.70;99.90;;;;;;4995778;28;20726;-51
2022/01/18 07:42:23;;;;;;;6.00;3.05;;;5.70;99.90;;;;;;5011293;28;20619;-51
2022/01/18 07:44:53;;;;;;;8.25;3.70;;;5.70;99.90;;;;;;5010240;28;20705;-51
2022/01/18 07:47:24;;;;;;;6.53;3.85;;;5.70;99.90;;;;;;5000567;28;20617;-51
2022/01/18 07:49:53;;;;;;;9.23;3.88;;;5.70;99.90;;;;;;5002104;28;20325;-51
2022/01/18 07:52:22;;;;;;;5.38;3.63;;;5.70;99.90;;;;;;5010197;28;20190;-51
2022/01/18 07:54:51;;;;;;;6.75;3.85;;;5.70;99.90;;;;;;5007914;28;20221;-51
2022/01/18 07:57:24;;;;;;;5.90;3.53;;;5.70;99.90;;;;;;4992591;28;20199;-52
2022/01/18 07:59:55;;;;;;;3.60;3.25;;;5.70;99.90;;;;;;4990787;28;20233;-52
2022/01/18 08:02:31;;;;;;;6.50;3.30;;;5.70;99.90;;;;;;4994134;28;20553;-51
2022/01/18 08:05:02;;;;;;;4.10;3.08;;;5.70;99.90;;;;;;5008997;28;20240;-51
2022/01/18 08:07:31;;;;;;;8.65;3.92;;;5.70;99.90;;;;;;5010170;28;20225;-51
2022/01/18 08:10:02;;;;;;;4.40;3.35;;;5.70;99.90;;;;;;5008680;28;20239;-51
2022/01/18 08:12:32;;;;;;;4.43;3.60;;;5.70;99.90;;;;;;5009893;28;20217;-51
2022/01/18 08:15:03;;;;;;;4.32;2.95;;;5.70;99.90;;;;;;5009096;28;20304;-50
2022/01/18 08:17:51;;;;;;;4.70;2.67;;;5.70;99.90;;;;;;5008218;28;20208;-51
2022/01/18 08:20:21;;;;;;;5.40;2.80;;;5.70;99.90;;;;;;5008249;28;20210;-51
2022/01/18 08:22:50;;;;;;;3.22;2.92;;;5.70;99.90;;;;;;5008672;28;20244;-51
2022/01/18 08:25:19;;;;;;;4.15;2.67;;;5.70;99.90;;;;;;5008590;28;20221;-51
2022/01/18 08:27:50;;;;;;;4.53;3.17;;;5.70;99.90;;;;;;4992754;28;20202;-51
2022/01/18 08:30:19;;;;;;;3.47;3.00;;;5.70;99.90;;;;;;5008993;28;20221;-51
2022/01/18 08:32:54;;;;;;;4.10;3.20;;;5.70;99.90;;;;;;5007543;28;20217;-51
2022/01/18 08:35:27;;;;;;;3.38;3.05;;;5.70;99.90;;;;;;5009376;28;20229;-51
2022/01/18 08:38:06;;;;;;;4.75;3.20;;;5.70;99.90;;;;;;5009927;28;20614;-51
2022/01/18 08:40:35;;;;;;;3.80;3.10;;;5.70;99.90;;;;;;4998858;28;20217;-50
2022/01/18 08:43:05;;;;;;;5.10;3.33;;;5.70;99.90;;;;;;5009885;28;20236;-51
2022/01/18 08:45:36;;;;;;;2.70;2.47;;;5.70;99.90;;;;;;5008840;28;20218;-50
2022/01/18 08:48:06;;;;;;;4.78;3.72;;;5.70;99.90;;;;;;5007903;28;20663;-52
2022/01/18 08:50:35;;;;;;;4.47;2.80;;;5.70;99.90;;;;;;5009040;28;20225;-51
2022/01/18 08:53:09;;;;;;;3.90;2.70;;;5.70;99.90;;;;;;5008866;28;20715;-51
2022/01/18 08:55:39;;;;;;;6.32;3.00;;;5.70;99.90;;;;;;4997014;28;20222;-51
2022/01/18 08:58:09;;;;;;;5.50;3.10;;;5.70;99.90;;;;;;5007570;28;20222;-51
2022/01/18 09:00:38;;;;;;;4.20;2.60;;;5.70;99.90;;;;;;5007638;28;20264;-51
2022/01/18 09:03:07;;;;;;;3.50;2.78;;;5.70;99.90;;;;;;5007707;28;20563;-51
2022/01/18 09:05:38;;;;;;;3.30;2.67;;;5.70;99.90;;;;;;5007484;28;20217;-51
2022/01/18 09:08:08;;;;;;;3.92;3.25;;;5.70;99.90;;;;;;5008291;28;20220;-51
2022/01/18 09:10:37;;;;;;;2.80;2.30;;;5.70;99.90;;;;;;5005812;28;20225;-51
2022/01/18 09:13:06;;;;;;;3.78;2.63;;;5.70;99.90;;;;;;5007740;28;20182;-51
2022/01/18 09:15:37;;;;;;;2.65;2.40;;;5.70;99.90;;;;;;5007850;28;20222;-50
2022/01/18 09:18:05;;;;;;;2.88;2.58;;;5.70;99.90;;;;;;5002164;28;20763;-50
2022/01/18 09:20:33;;;;;;;6.30;3.45;;;5.70;99.90;;;;;;5008494;28;20218;-51
2022/01/18 09:23:02;;;;;;;5.05;3.05;;;5.70;99.90;;;;;;5009118;28;20217;-51
2022/01/18 09:25:33;;;;;;;3.00;2.70;;;5.70;99.90;;;;;;5005562;28;20267;-51
2022/01/18 09:28:01;;;;;;;2.83;2.38;;;5.70;99.90;;;;;;5005821;28;20531;-51
2022/01/18 09:30:31;;;;;;;3.60;2.60;;;5.70;99.90;;;;;;5007333;28;20225;-50
2022/01/18 09:33:02;;;;;;;4.07;2.95;;;5.70;99.90;;;;;;5007136;28;20277;-50
2022/01/18 09:35:31;;;;;;;3.85;3.25;;;5.70;99.90;;;;;;5005910;28;20268;-50
2022/01/18 09:37:59;;;;;;;4.25;2.60;;;5.70;99.90;;;;;;5007735;28;20190;-51
2022/01/18 09:40:30;;;;;;;3.95;2.85;;;5.70;99.90;;;;;;5007176;28;20290;-51
2022/01/18 09:43:08;;;;;;;3.13;2.83;;;5.70;99.90;;;;;;4998957;28;20538;-51
2022/01/18 09:45:39;;;;;;;4.35;2.50;;;5.70;99.90;;;;;;5007030;28;20244;-51
2022/01/18 09:48:10;;;;;;;3.40;2.22;;;5.70;99.90;;;;;;5005930;28;20214;-51
2022/01/18 09:50:41;;;;;;;6.55;3.40;;;5.70;99.90;;;;;;5006996;28;20314;-52
2022/01/18 09:53:12;;;;;;;3.15;2.60;;;5.80;99.90;;;;;;5007971;28;20684;-50
2022/01/18 09:55:43;;;;;;;3.65;2.30;;;5.70;99.90;;;;;;5002857;28;20218;-51
2022/01/18 09:58:13;;;;;;;2.67;2.40;;;5.70;99.90;;;;;;5007386;28;20698;-50
2022/01/18 10:00:42;;;;;;;4.97;2.63;;;5.70;99.90;;;;;;5006918;28;20308;-51
2022/01/18 10:03:33;;;;;;;4.40;2.90;;;5.70;99.90;;;;;;5006146;28;20546;-50
2022/01/18 10:06:05;;;;;;;4.20;2.40;;;5.80;99.90;;;;;;5005964;28;20221;-51
2022/01/18 10:08:37;;;;;;;3.83;2.60;;;5.80;99.90;;;;;;5005630;28;20210;-50
2022/01/18 10:11:14;;;;;;;4.97;2.30;;;5.70;99.90;;;;;;5018764;28;20416;-48
2022/01/18 10:13:45;;;;;;;4.00;3.28;;;5.70;99.90;;;;;;5006317;28;20899;-51
2022/01/18 10:16:16;;;;;;;6.72;3.85;;;5.80;99.90;;;;;;5005420;28;20190;-50
2022/01/18 10:18:50;;;;;;;7.60;4.35;;;5.80;99.90;;;;;;5000739;28;20249;-51
2022/01/18 10:21:29;;;;;;;6.95;4.40;;;5.80;99.90;;;;;;5007552;28;20655;-51
2022/01/18 10:24:15;;;;;;;8.40;4.32;;;5.80;99.90;;;;;;5007250;28;20305;-51
2022/01/18 10:26:45;;;;;;;4.50;3.30;;;5.80;99.90;;;;;;5007047;28;20668;-51
2022/01/18 10:29:15;;;;;;;6.68;4.20;;;5.80;99.90;;;;;;5007241;28;20233;-51
2022/01/18 10:31:57;;;;;;;7.22;4.15;;;5.80;99.90;;;;;;5002093;28;20210;-51
2022/01/18 10:34:42;;;;;;;4.15;3.33;;;5.80;99.90;;;;;;5003580;28;20245;-52
2022/01/18 10:37:12;;;;;;;5.47;4.35;;;5.80;99.90;;;;;;5008236;28;20284;-51
2022/01/18 10:39:42;;;;;;;6.45;4.53;;;5.80;99.90;;;;;;5006945;28;20275;-51
2022/01/18 10:42:17;;;;;;;10.85;4.15;;;5.80;99.90;;;;;;4992645;28;20292;-51
2022/01/18 10:44:58;;;;;;;6.80;4.18;;;5.80;99.90;;;;;;4995926;28;20247;-51
2022/01/18 10:47:27;;;;;;;6.97;4.07;;;5.80;99.90;;;;;;4996201;28;20198;-51
2022/01/18 10:49:58;;;;;;;6.35;4.03;;;5.80;99.90;;;;;;5004913;28;20593;-51
2022/01/18 10:52:28;;;;;;;4.97;3.33;;;5.80;99.90;;;;;;5007882;28;20194;-50
2022/01/18 10:54:58;;;;;;;9.05;5.05;;;5.80;99.90;;;;;;5005044;28;20574;-51
2022/01/18 10:57:29;;;;;;;10.18;4.35;;;5.80;99.90;;;;;;5007482;28;20198;-51
2022/01/18 11:00:02;;;;;;;5.40;2.95;;;5.80;99.90;;;;;;5006870;28;20231;-51
2022/01/18 11:02:33;;;;;;;5.78;3.95;;;5.80;99.90;;;;;;5006925;28;20209;-51
2022/01/18 11:05:14;;;;;;;6.72;3.90;;;5.80;99.90;;;;;;5006060;28;20769;-51
2022/01/18 11:07:43;;;;;;;5.35;3.95;;;5.80;99.90;;;;;;5003353;28;20251;-50
2022/01/18 11:10:13;;;;;;;3.75;3.13;;;5.80;99.90;;;;;;5003555;28;20222;-51
2022/01/18 11:12:53;;;;;;;5.53;3.40;;;5.90;99.90;;;;;;5008081;28;20201;-50
2022/01/18 11:15:24;;;;;;;5.82;3.17;;;5.80;99.90;;;;;;5005025;28;20276;-51
2022/01/18 11:17:58;;;;;;;4.43;3.45;;;5.80;99.90;;;;;;4992841;28;20187;-50
2022/01/18 11:20:30;;;;;;;4.85;3.38;;;5.80;99.90;;;;;;4988077;28;20230;-51
2022/01/18 11:22:59;;;;;;;5.15;4.07;;;5.80;99.90;;;;;;5005774;28;20214;-51
2022/01/18 11:25:29;;;;;;;6.75;3.42;;;5.80;99.90;;;;;;5006973;28;20221;-51
2022/01/18 11:27:59;;;;;;;4.50;3.50;;;5.80;99.90;;;;;;4999027;28;20202;-51
2022/01/18 11:30:31;;;;;;;4.60;3.33;;;5.80;99.90;;;;;;5001922;28;20229;-50
2022/01/18 11:33:03;;;;;;;4.15;3.47;;;5.90;99.90;;;;;;4998008;28;20645;-51
2022/01/18 11:35:46;;;;;;;4.75;3.50;;;5.90;99.90;;;;;;5010371;28;20230;-51
2022/01/18 11:38:21;;;;;;;6.15;3.13;;;5.80;99.90;;;;;;5010921;28;20214;-51
2022/01/18 11:40:52;;;;;;;8.18;3.40;;;5.80;99.90;;;;;;5008438;28;20487;-51
2022/01/18 11:43:35;;;;;;;3.50;2.90;;;5.90;99.90;;;;;;5011051;28;20220;-51
2022/01/18 11:46:22;;;;;;;5.28;2.85;;;5.90;99.90;;;;;;5010775;28;20210;-50
2022/01/18 11:49:00;;;;;;;3.88;2.95;;;5.90;99.90;;;;;;5009804;28;20380;-50
2022/01/18 11:51:39;;;;;;;4.85;2.75;;;5.90;99.90;;;;;;5011635;28;20729;-51
2022/01/18 11:54:26;;;;;;;4.65;3.30;;;5.90;99.90;;;;;;5007831;28;20332;-50
2022/01/18 11:56:56;;;;;;;4.60;2.90;;;5.90;99.90;;;;;;5011332;28;20662;-51
2022/01/18 11:59:27;;;;;;;4.80;3.30;;;5.90;99.90;;;;;;5011082;28;20307;-51
2022/01/18 12:01:57;;;;;;;4.90;2.90;;;5.90;99.90;;;;;;5019811;28;20198;-51
2022/01/18 12:05:14;;;;;;;3.88;3.10;;;5.90;99.90;;;;;;4993038;28;20234;-51
2022/01/18 12:07:59;;;;;;;3.58;2.92;;;5.90;99.90;;;;;;4991701;28;20557;-51
2022/01/18 12:10:45;;;;;;;4.22;3.15;;;5.90;99.90;;;;;;4992092;28;20253;-51
2022/01/18 12:13:24;;;;;;;3.65;2.95;;;5.90;99.90;;;;;;5008855;28;20669;-51
2022/01/18 12:15:56;;;;;;;4.82;3.00;;;5.90;99.90;;;;;;5010802;28;20628;-52
2022/01/18 12:18:27;;;;;;;3.67;2.42;;;5.90;99.90;;;;;;5009470;28;20214;-51
2022/01/18 12:20:58;;;;;;;3.90;3.30;;;5.90;99.90;;;;;;5011337;28;20217;-52
2022/01/18 12:23:29;;;;;;;3.92;2.95;;;5.90;99.90;;;;;;5010669;28;20956;-51
2022/01/18 12:26:02;;;;;;;4.18;2.75;;;5.90;99.90;;;;;;5004783;28;20261;-52
2022/01/18 12:35:17;;;;;;;3.63;2.70;;;5.90;99.90;;;;;;4986123;28;20289;-51
2022/01/18 12:37:48;;;;;;;5.25;3.15;;;5.90;99.90;;;;;;5009819;28;20225;-52
2022/01/18 12:40:27;;;;;;;5.43;3.50;;;5.90;99.90;;;;;;5007823;28;20217;-50
2022/01/18 12:45:58;;;;;;;4.68;3.20;;;5.90;99.90;;;;;;5010147;28;20308;-51
2022/01/18 12:48:27;;;;;;;4.32;3.08;;;5.90;99.90;;;;;;5019104;28;20225;-51
2022/01/18 12:50:57;;;;;;;4.43;2.40;;;5.90;99.90;;;;;;5008978;28;20385;-50
2022/01/18 12:53:33;;;;;;;3.00;2.70;;;5.90;99.90;;;;;;5009521;28;20201;-51
2022/01/18 12:56:08;;;;;;;3.58;2.05;;;5.90;99.90;;;;;;5002375;28;20593;-50
2022/01/18 12:58:39;;;;;;;3.53;2.83;;;5.90;99.90;;;;;;5006936;28;20259;-51
2022/01/18 13:01:08;;;;;;;2.42;2.22;;;5.90;99.90;;;;;;5008936;28;20236;-52
2022/01/18 13:03:39;;;;;;;6.30;3.42;;;5.90;99.90;;;;;;5004586;28;20223;-50
2022/01/18 13:06:09;;;;;;;3.33;2.60;;;5.90;99.90;;;;;;5008994;28;20248;-52
2022/01/18 13:08:46;;;;;;;3.67;2.70;;;5.90;99.90;;;;;;5007496;28;20240;-50
2022/01/18 13:11:18;;;;;;;7.63;2.25;;;5.90;99.90;;;;;;5008020;28;20293;-52
2022/01/18 13:13:54;;;;;;;2.97;2.00;;;5.90;99.90;;;;;;5015906;28;20305;-51
2022/01/18 13:27:38;;;;;;;2.95;2.28;;;5.90;99.90;;;;;;5008544;28;20198;-51
2022/01/18 13:30:18;;;;;;;4.65;2.50;;;5.90;99.90;;;;;;5008325;28;20288;-51
2022/01/18 13:32:50;;;;;;;2.47;1.92;;;5.90;99.90;;;;;;5005632;28;20230;-51
2022/01/18 13:35:25;;;;;;;2.53;2.30;;;5.90;99.90;;;;;;5008224;28;20218;-51
2022/01/18 13:37:58;;;;;;;3.78;2.40;;;5.90;99.90;;;;;;5009169;28;20719;-51
2022/01/18 13:40:30;;;;;;;3.28;2.50;;;5.90;99.90;;;;;;5004672;28;20284;-51
2022/01/18 13:43:08;;;;;;;3.05;2.78;;;5.90;99.90;;;;;;5005705;28;20217;-52
2022/01/18 13:45:40;;;;;;;2.90;2.50;;;6.00;99.90;;;;;;5007580;28;20222;-52
2022/01/18 13:48:10;;;;;;;5.70;2.90;;;5.90;99.90;;;;;;5003629;28;20247;-50
2022/01/18 13:50:46;;;;;;;3.17;2.38;;;5.90;99.90;;;;;;5010820;28;20221;-52
2022/01/18 13:53:19;;;;;;;3.88;2.80;;;5.90;99.90;;;;;;5007650;28;20747;-52
2022/01/18 13:55:52;;;;;;;2.53;2.13;;;6.00;99.90;;;;;;4998117;28;20215;-52
2022/01/18 13:58:33;;;;;;;4.40;2.42;;;5.90;99.90;;;;;;5005685;28;20285;-51
2022/01/18 14:01:13;;;;;;;3.58;3.28;;;5.90;99.90;;;;;;5007468;28;20235;-51
2022/01/18 14:03:50;;;;;;;3.38;2.10;;;6.00;99.90;;;;;;5003820;28;20283;-51
2022/01/18 14:06:19;;;;;;;2.53;2.17;;;6.00;99.90;;;;;;4987245;28;20194;-50
2022/01/18 14:08:51;;;;;;;3.50;2.45;;;6.00;99.90;;;;;;4985858;28;20222;-51
2022/01/18 14:11:22;;;;;;;3.05;2.38;;;6.00;99.90;;;;;;4979067;28;20211;-50
2022/01/18 14:13:56;;;;;;;4.63;2.63;;;6.00;99.90;;;;;;4986890;28;20221;-51
2022/01/18 14:16:28;;;;;;;3.53;2.92;;;6.00;99.90;;;;;;4985189;28;20229;-52
2022/01/18 14:19:01;;;;;;;2.95;2.60;;;6.00;99.90;;;;;;4975557;28;20653;-51
2022/01/18 14:21:36;;;;;;;2.65;2.22;;;6.00;99.90;;;;;;4987978;28;20534;-51
2022/01/18 14:24:14;;;;;;;2.40;2.20;;;6.00;99.90;;;;;;4986323;28;20301;-51
2022/01/18 14:26:59;;;;;;;5.15;2.00;;;6.00;99.90;;;;;;4982719;28;20191;-51
2022/01/18 14:29:48;;;;;;;3.55;2.10;;;6.00;99.90;;;;;;4986555;28;20214;-51
2022/01/18 14:32:27;;;;;;;2.75;2.40;;;6.00;99.90;;;;;;4983839;28;20194;-52
2022/01/18 14:34:58;;;;;;;2.67;2.47;;;6.00;99.90;;;;;;4983892;28;20883;-51